Grafton, WI (53024)

9:11 AM CST on February 21, 2017 (GMT -0600)
SE Grafton | | Change Station

Elev 750 ft 43.31 °N, 87.94 °W | Updated 58 seconds ago

Partly Cloudy
Partly Cloudy
49.8 °F
Feels Like 47 °F
N
7.0
Wind Variable Wind from SSE

Today
High -- | Low -- °F
--% Chance of Precip.
Yesterday
High -- | Low -- °F
Precip. -- in
Pressure 29.92 in
Visibility 10.0 miles
Clouds Mostly Cloudy 1100 ft
Windchill 47 °F
Dew Point 44 °F
Humidity 81%
Rainfall 0.17 in
Snow Depth Not available.
6:40 AM 5:30 PM
Waning Crescent, 24% visible
METAR KETB 211455Z AUTO 28008KT 10SM BKN011 08/07 A2992 RMK AO2
Pressure 29.92 in
Visibility 10.0 miles
Clouds Mostly Cloudy 1100 ft
Windchill 47 °F
Dew Point 44 °F
Humidity 81%
Rainfall 0.17 in
Snow Depth Not available.
6:40 AM 5:30 PM
Waning Crescent, 24% visible
METAR KETB 211455Z AUTO 28008KT 10SM BKN011 08/07 A2992 RMK AO2

Get Your Daily Forecast Email!

Thanks for signing up!

Be on the lookout for a verification email in your inbox.

You'll start receiving the daily forecast at 8 AM.

×

10-Day Weather Forecast

Almanac

Astronomy

Feb. 21, 2017 Rise Set
Actual Time
Civil Twilight
Nautical Twilight
Astronomical Twilight
Moon
Length of Visible Light
Length of Day
Tomorrow will be .
, % of the Moon is Illuminated

Today's Extremes

State Highs State Lows

Community

WunderPhotos

Upload Photos

1,962,540 photos uploaded!

WunderBlog® & News

Nearby

Air Quality

  Air Quality AQ Index Pollutant
Not available.

Snow Depth

Station Depth Elevation

Earthquake Activity

City Distance Mag. Time & Date
Minimum magnitude displayed is 2.5.

Coastal Water Temperatures

Place Temperature

Stations

Nearby Weather Stations

Station Location Temp. Windchill Dew Point Humidity Wind Precip. Elev Updated Type
                   

Watches & Warnings

There are currently no watches in effect.